Churchill Airport


Codes: CYYQ/YYQ
Name: Churchill Airport
City: Churchill
Country: Canada
Elevation: 94 ft.
Wikipedia:

Photos at Churchill Airport


   Photos courtesy of SpottingLog. You can add your own sightings and photos by signing up for a free trial today.



No photos found.

Weather at Churchill Airport


Time (UTC)DescriptionTempratureWindCloud coverageVisibilityPressureHumidity
15-Apr-2024 18:00Scattered Clouds-8°C7 mph, N34%10000m1022hPa89%
15-Apr-2024 21:00Few Clouds-5°C2 mph, N15%10000m1023hPa81%
16-Apr-2024 00:00Few Clouds-4°C0 mph, SE13%10000m1024hPa81%
16-Apr-2024 03:00Few Clouds-9°C2 mph, S12%10000m1026hPa89%
16-Apr-2024 06:00Scattered Clouds-11°C7 mph, S27%10000m1026hPa95%
16-Apr-2024 09:00Overcast Clouds-11°C4 mph, S91%10000m1028hPa94%
16-Apr-2024 12:00Overcast Clouds-7°C4 mph, S95%10000m1028hPa89%
16-Apr-2024 15:00Overcast Clouds-2°C4 mph, S100%10000m1028hPa74%
16-Apr-2024 18:00Overcast Clouds-0°C7 mph, SE100%10000m1028hPa83%
16-Apr-2024 21:00Overcast Clouds-0°C7 mph, SE100%10000m1028hPa93%
17-Apr-2024 00:00Overcast Clouds-1°C9 mph, E100%10000m1027hPa93%
17-Apr-2024 03:00Light Snow-3°C7 mph, E100%5099m1028hPa96%
17-Apr-2024 06:00Light Snow-3°C9 mph, NE100%10000m1027hPa95%
17-Apr-2024 09:00Overcast Clouds-3°C13 mph, NE100%8206m1026hPa94%
17-Apr-2024 12:00Light Snow-5°C18 mph, NE100%738m1026hPa95%
17-Apr-2024 15:00Light Snow-7°C22 mph, NE100%520m1026hPa94%
17-Apr-2024 18:00Light Snow-8°C25 mph, NE100%687m1027hPa92%
17-Apr-2024 21:00Light Snow-8°C25 mph, NE100%593m1027hPa92%
18-Apr-2024 00:00Light Snow-9°C25 mph, N100%164m1028hPa93%
18-Apr-2024 03:00Light Snow-10°C25 mph, N100%139m1029hPa94%
18-Apr-2024 06:00Light Snow-12°C25 mph, N100%161m1028hPa94%
18-Apr-2024 09:00Light Snow-12°C25 mph, N100%168m1028hPa94%
18-Apr-2024 12:00Light Snow-13°C25 mph, N100%395m1029hPa93%
18-Apr-2024 15:00Overcast Clouds-13°C25 mph, N100%10000m1029hPa90%
18-Apr-2024 18:00Overcast Clouds-10°C25 mph, N100%10000m1029hPa85%
18-Apr-2024 21:00Overcast Clouds-9°C22 mph, N100%10000m1028hPa86%
19-Apr-2024 00:00Overcast Clouds-11°C20 mph, N100%10000m1028hPa84%
19-Apr-2024 03:00Broken Clouds-13°C16 mph, N51%10000m1028hPa84%
19-Apr-2024 06:00Broken Clouds-16°C13 mph, N62%10000m1027hPa86%
19-Apr-2024 09:00Few Clouds-16°C9 mph, N22%10000m1026hPa85%
19-Apr-2024 12:00Few Clouds-16°C9 mph, NW14%10000m1025hPa90%
19-Apr-2024 15:00Few Clouds-11°C13 mph, NW12%10000m1024hPa92%
19-Apr-2024 18:00Broken Clouds-7°C16 mph, NW53%10000m1023hPa89%
19-Apr-2024 21:00Overcast Clouds-4°C16 mph, NW100%10000m1022hPa85%
20-Apr-2024 00:00Overcast Clouds-4°C11 mph, NW93%10000m1021hPa90%
20-Apr-2024 03:00Broken Clouds-6°C9 mph, NW68%10000m1020hPa94%
20-Apr-2024 06:00Broken Clouds-10°C9 mph, NW61%10000m1019hPa96%
20-Apr-2024 09:00Overcast Clouds-12°C7 mph, NW86%7129m1018hPa98%
20-Apr-2024 12:00Overcast Clouds-11°C7 mph, N92%857m1019hPa97%
20-Apr-2024 15:00Overcast Clouds-8°C16 mph, N100%10000m1019hPa87%